Time;durP1;ratioP1;P1;durP2;ratioP2;P2;SDS_P1;SDS_P2;PMS_P1;PMS_P2;Temp;Humidity;BMP_temperature;BMP_pressure;BME280_temperature;BME280_humidity;BME280_pressure;Samples;Min_cycle;Max_cycle;Signal;HPM_P1;HPM_P2
2022/10/28 00:01:28;;;;;;;;;;;11.20;99.90;;;;;;5069561;28;20515;-80
2022/10/28 00:03:57;;;;;;;;;;;11.30;99.90;;;;;;5071173;28;19939;-81
2022/10/28 00:06:28;;;;;;;;;;;11.20;99.90;;;;;;5075807;28;19924;-81
2022/10/28 00:08:54;;;;;;;;;;;11.20;99.90;;;;;;5053830;28;19913;-81
2022/10/28 00:11:24;;;;;;;;;;;11.10;99.90;;;;;;5071334;28;19919;-80
2022/10/28 00:13:52;;;;;;;;;;;11.00;99.90;;;;;;5079825;28;19917;-81
2022/10/28 00:16:19;;;;;;;;;;;11.00;99.90;;;;;;5070144;28;19916;-81
2022/10/28 00:18:44;;;;;;;;;;;11.00;99.90;;;;;;5075756;28;20358;-81
2022/10/28 00:21:12;;;;;;;;;;;11.00;99.90;;;;;;5082855;28;19965;-81
2022/10/28 00:23:37;;;;;;;;;;;11.10;99.90;;;;;;5071045;28;19928;-81
2022/10/28 00:26:23;;;;;;;;;;;11.00;99.90;;;;;;5075139;28;19924;-81
2022/10/28 00:28:50;;;;;;;;;;;11.00;99.90;;;;;;5078496;28;20355;-81
2022/10/28 00:31:16;;;;;;;;;;;11.10;99.90;;;;;;5068663;28;19982;-81
2022/10/28 00:33:42;;;;;;;;;;;11.10;99.90;;;;;;5067552;28;20065;-81
2022/10/28 00:36:15;;;;;;;;;;;11.10;99.90;;;;;;5082018;28;20003;-81
2022/10/28 00:38:42;;;;;;;;;;;11.00;99.90;;;;;;5060166;28;20024;-80
2022/10/28 00:41:08;;;;;;;;;;;11.10;99.90;;;;;;5058999;28;19995;-80
2022/10/28 00:43:53;;;;;;;;;;;11.00;99.90;;;;;;5066745;28;20355;-81
2022/10/28 00:46:38;;;;;;;;;;;11.00;99.90;;;;;;5077646;28;20007;-81
2022/10/28 00:49:18;;;;;;;;;;;11.00;99.90;;;;;;5078673;28;19924;-81
2022/10/28 00:51:45;;;;;;;;;;;11.00;99.90;;;;;;5074881;28;19921;-81
2022/10/28 00:54:12;;;;;;;;;;;11.00;99.90;;;;;;5068447;28;19982;-82
2022/10/28 00:56:39;;;;;;;;;;;10.90;99.90;;;;;;5082440;28;19919;-82
2022/10/28 00:59:06;;;;;;;;;;;10.90;99.90;;;;;;5064887;28;19920;-81
2022/10/28 01:01:32;;;;;;;;;;;10.90;99.90;;;;;;5064269;28;19971;-81
2022/10/28 01:03:57;;;;;;;;;;;10.90;99.90;;;;;;5072931;28;20448;-81
2022/10/28 01:06:23;;;;;;;;;;;10.90;99.90;;;;;;5082035;28;19951;-82
2022/10/28 01:08:49;;;;;;;;;;;10.90;99.90;;;;;;5070388;28;20394;-81
2022/10/28 01:11:22;;;;;;;;;;;10.90;99.90;;;;;;5079509;28;19912;-82
2022/10/28 01:13:47;;;;;;;;;;;10.90;99.90;;;;;;5081085;28;19912;-82
2022/10/28 01:16:25;;;;;;;;;;;10.90;99.90;;;;;;5073697;28;19920;-81
2022/10/28 01:19:09;;;;;;;;;;;10.70;99.90;;;;;;5080660;28;19999;-81
2022/10/28 01:21:41;;;;;;;;;;;10.70;99.90;;;;;;5080788;28;20596;-82
2022/10/28 01:24:18;;;;;;;;;;;10.50;99.90;;;;;;5074286;28;19927;-81
2022/10/28 01:27:13;;;;;;;;;;;10.40;99.90;;;;;;5081528;28;19951;-81
2022/10/28 01:29:57;;;;;;;;;;;10.30;99.90;;;;;;5060767;28;19916;-81
2022/10/28 01:32:23;;;;;;;;;;;10.30;99.90;;;;;;5073561;28;19974;-81
2022/10/28 01:34:56;;;;;;;;;;;10.30;99.90;;;;;;5067714;28;19944;-81
2022/10/28 01:37:30;;;;;;;;;;;10.20;99.90;;;;;;5075084;28;19924;-81
2022/10/28 01:39:58;;;;;;;;;;;10.20;99.90;;;;;;5073591;28;20329;-82
2022/10/28 01:42:26;;;;;;;;;;;10.20;99.90;;;;;;5082311;28;19999;-82
2022/10/28 01:45:06;;;;;;;;;;;10.10;99.90;;;;;;5070459;28;19928;-82
2022/10/28 01:47:39;;;;;;;;;;;10.10;99.90;;;;;;5071632;28;19995;-81
2022/10/28 01:50:08;;;;;;;;;;;10.10;99.90;;;;;;5076551;28;20031;-81
2022/10/28 01:52:36;;;;;;;;;;;10.10;99.90;;;;;;5065909;28;19916;-82
2022/10/28 01:55:05;;;;;;;;;;;10.10;99.90;;;;;;5073842;28;19928;-82
2022/10/28 01:57:32;;;;;;;;;;;10.00;99.90;;;;;;5081996;28;19919;-82
2022/10/28 01:59:59;;;;;;;;;;;10.10;99.90;;;;;;5069380;28;20011;-82
2022/10/28 02:02:25;;;;;;;;;;;10.00;99.90;;;;;;5057248;28;19917;-81
2022/10/28 02:04:52;;;;;;;;;;;10.00;99.90;;;;;;5077965;28;19924;-82
2022/10/28 02:07:17;;;;;;;;;;;9.90;99.90;;;;;;5080010;28;19920;-81
2022/10/28 02:10:00;;;;;;;;;;;9.80;99.90;;;;;;5072810;28;20311;-81
2022/10/28 02:12:28;;;;;;;;;;;9.80;99.90;;;;;;5086178;28;19916;-82
2022/10/28 02:15:00;;;;;;;;;;;9.70;99.90;;;;;;5077293;28;19927;-82
2022/10/28 02:17:32;;;;;;;;;;;9.70;99.90;;;;;;5074211;28;20007;-82
2022/10/28 02:20:00;;;;;;;;;;;9.70;99.90;;;;;;5085535;28;19916;-81
2022/10/28 02:22:29;;;;;;;;;;;9.70;99.90;;;;;;5078964;28;19963;-81
2022/10/28 02:25:13;;;;;;;;;;;9.70;99.90;;;;;;5073503;28;19939;-81
2022/10/28 02:27:43;;;;;;;;;;;9.70;99.90;;;;;;5078910;28;20332;-81
2022/10/28 02:30:16;;;;;;;;;;;9.60;99.90;;;;;;5068019;28;19913;-82
2022/10/28 02:32:44;;;;;;;;;;;9.60;99.90;;;;;;5081707;28;19927;-82
2022/10/28 02:35:16;;;;;;;;;;;9.60;99.90;;;;;;5093551;28;20394;-81
2022/10/28 02:37:43;;;;;;;;;;;9.50;99.90;;;;;;5080760;28;19916;-81
2022/10/28 02:40:12;;;;;;;;;;;9.40;99.90;;;;;;5075572;28;19924;-82
2022/10/28 02:42:44;;;;;;;;;;;9.40;99.90;;;;;;5081273;28;19923;-81
2022/10/28 02:45:12;;;;;;;;;;;9.30;99.90;;;;;;5061710;28;19929;-82
2022/10/28 02:47:38;;;;;;;;;;;9.30;99.90;;;;;;5059404;28;19919;-82
2022/10/28 02:50:07;;;;;;;;;;;9.40;99.90;;;;;;5066631;28;19928;-81
2022/10/28 02:52:33;;;;;;;;;;;9.30;99.90;;;;;;5066722;28;19973;-81
2022/10/28 02:55:02;;;;;;;;;;;9.20;99.90;;;;;;5073564;28;19942;-82
2022/10/28 02:57:39;;;;;;;;;;;9.20;99.90;;;;;;5080579;28;20513;-82
2022/10/28 03:00:07;;;;;;;;;;;9.20;99.90;;;;;;5074085;28;19938;-82
2022/10/28 03:02:32;;;;;;;;;;;9.30;99.90;;;;;;5068500;28;19980;-82
2022/10/28 03:04:58;;;;;;;;;;;9.30;99.90;;;;;;5065764;28;19956;-82
2022/10/28 03:07:23;;;;;;;;;;;9.20;99.90;;;;;;5065580;28;19931;-83
2022/10/28 03:09:50;;;;;;;;;;;9.20;99.90;;;;;;5052979;28;19920;-82
2022/10/28 03:12:15;;;;;;;;;;;9.10;99.90;;;;;;5084656;28;19912;-82
2022/10/28 03:14:41;;;;;;;;;;;9.00;99.90;;;;;;5077630;28;20007;-82
2022/10/28 03:17:07;;;;;;;;;;;9.10;99.90;;;;;;5071632;28;19958;-82
2022/10/28 03:19:32;;;;;;;;;;;9.10;99.90;;;;;;5059598;28;19927;-82
2022/10/28 03:21:58;;;;;;;;;;;9.20;99.90;;;;;;5075978;28;19925;-81
2022/10/28 03:24:23;;;;;;;;;;;9.10;99.90;;;;;;5069845;28;19962;-81
2022/10/28 03:26:49;;;;;;;;;;;9.20;99.90;;;;;;5082410;28;19951;-81
2022/10/28 03:29:14;;;;;;;;;;;9.20;99.90;;;;;;5079230;28;19924;-82
2022/10/28 03:31:40;;;;;;;;;;;9.20;99.90;;;;;;5053524;28;19952;-82
2022/10/28 03:34:05;;;;;;;;;;;9.20;99.90;;;;;;5069575;28;20314;-81
2022/10/28 03:36:31;;;;;;;;;;;9.40;99.90;;;;;;5065787;28;19920;-81
2022/10/28 03:38:56;;;;;;;;;;;9.30;99.90;;;;;;5073381;28;19916;-82
2022/10/28 03:41:22;;;;;;;;;;;9.40;99.90;;;;;;5080850;28;20430;-81
2022/10/28 03:43:47;;;;;;;;;;;9.40;99.90;;;;;;5071907;28;20594;-82
2022/10/28 03:46:13;;;;;;;;;;;9.40;99.90;;;;;;5073153;28;19998;-82
2022/10/28 03:48:38;;;;;;;;;;;9.40;99.90;;;;;;5078044;28;19959;-82
2022/10/28 03:51:04;;;;;;;;;;;9.50;99.90;;;;;;5066216;28;19987;-81
2022/10/28 03:53:29;;;;;;;;;;;9.70;99.90;;;;;;5072493;28;20403;-81
2022/10/28 03:55:56;;;;;;;;;;;9.60;99.90;;;;;;5076758;28;19917;-82
2022/10/28 03:58:21;;;;;;;;;;;9.60;99.90;;;;;;5063645;28;20036;-82
2022/10/28 04:00:48;;;;;;;;;;;9.60;99.90;;;;;;5055458;28;20427;-82
2022/10/28 04:03:14;;;;;;;;;;;9.70;99.90;;;;;;5074759;28;19924;-82
2022/10/28 04:05:39;;;;;;;;;;;9.60;99.90;;;;;;5063739;28;20410;-81
2022/10/28 04:08:05;;;;;;;;;;;9.50;99.90;;;;;;5073072;28;20448;-81
2022/10/28 04:10:30;;;;;;;;;;;9.40;99.90;;;;;;5078763;28;19915;-82
2022/10/28 04:13:03;;;;;;;;;;;9.50;99.90;;;;;;5073466;28;19924;-80
2022/10/28 04:15:28;;;;;;;;;;;9.60;99.90;;;;;;5071627;28;19917;-81
2022/10/28 04:17:54;;;;;;;;;;;9.50;99.90;;;;;;5067307;28;20373;-81
2022/10/28 04:20:19;;;;;;;;;;;9.40;99.90;;;;;;5077646;28;19928;-81
2022/10/28 04:22:45;;;;;;;;;;;9.40;99.90;;;;;;5070872;28;20380;-81
2022/10/28 04:25:10;;;;;;;;;;;9.40;99.90;;;;;;5054107;28;19916;-81
2022/10/28 04:27:36;;;;;;;;;;;9.40;99.90;;;;;;5061663;28;20027;-81
2022/10/28 04:30:02;;;;;;;;;;;9.40;99.90;;;;;;5075330;28;20010;-81
2022/10/28 04:32:28;;;;;;;;;;;9.40;99.90;;;;;;5072643;28;20012;-81
2022/10/28 04:34:53;;;;;;;;;;;9.50;99.90;;;;;;5077210;28;20388;-82
2022/10/28 04:37:19;;;;;;;;;;;9.60;99.90;;;;;;5044091;28;19917;-82
2022/10/28 04:39:44;;;;;;;;;;;9.60;99.90;;;;;;5057815;28;19975;-82
2022/10/28 04:42:10;;;;;;;;;;;9.60;99.90;;;;;;5081412;28;19916;-79
2022/10/28 04:44:35;;;;;;;;;;;9.60;99.90;;;;;;5076447;28;19920;-80
2022/10/28 04:47:01;;;;;;;;;;;9.50;99.90;;;;;;5071803;28;19928;-80
2022/10/28 04:49:26;;;;;;;;;;;9.70;99.90;;;;;;5062927;28;19921;-80
2022/10/28 04:51:52;;;;;;;;;;;9.70;99.90;;;;;;5073455;28;20331;-80
2022/10/28 04:54:17;;;;;;;;;;;9.70;99.90;;;;;;5065969;28;19928;-80
2022/10/28 04:56:42;;;;;;;;;;;9.90;99.90;;;;;;5054671;28;19920;-80
2022/10/28 04:59:08;;;;;;;;;;;10.00;99.90;;;;;;5072853;28;20562;-80
2022/10/28 05:01:33;;;;;;;;;;;10.10;99.90;;;;;;5070853;28;19917;-80
2022/10/28 05:03:59;;;;;;;;;;;10.10;99.90;;;;;;5058415;28;19928;-80
2022/10/28 05:06:24;;;;;;;;;;;10.10;99.90;;;;;;5067184;28;19920;-81
2022/10/28 05:08:50;;;;;;;;;;;10.00;99.90;;;;;;5087031;28;19920;-82
2022/10/28 05:11:16;;;;;;;;;;;10.00;99.90;;;;;;5077526;28;19917;-80
2022/10/28 05:13:41;;;;;;;;;;;9.90;99.90;;;;;;5077442;28;19923;-80
2022/10/28 05:16:07;;;;;;;;;;;9.90;99.90;;;;;;5063262;28;19966;-80
2022/10/28 05:18:32;;;;;;;;;;;9.90;99.90;;;;;;5067167;28;19922;-80
2022/10/28 05:20:58;;;;;;;;;;;9.80;99.90;;;;;;5064041;28;19970;-74
2022/10/28 05:23:23;;;;;;;;;;;9.80;99.90;;;;;;5070141;28;20406;-73
2022/10/28 05:25:50;;;;;;;;;;;9.80;99.90;;;;;;5069911;28;19920;-75
2022/10/28 05:28:15;;;;;;;;;;;9.80;99.90;;;;;;5075002;28;19923;-76
2022/10/28 05:30:41;;;;;;;;;;;9.80;99.90;;;;;;5061955;28;19920;-75
2022/10/28 05:33:07;;;;;;;;;;;9.80;99.90;;;;;;5075339;28;19916;-76
2022/10/28 05:35:32;;;;;;;;;;;9.90;99.90;;;;;;5063510;28;20148;-76
2022/10/28 05:37:58;;;;;;;;;;;10.00;99.90;;;;;;5075418;28;19922;-77
2022/10/28 05:40:24;;;;;;;;;;;10.00;99.90;;;;;;5092097;28;20513;-77
2022/10/28 05:42:49;;;;;;;;;;;10.00;99.90;;;;;;5074346;28;20011;-78
2022/10/28 05:45:15;;;;;;;;;;;10.10;99.90;;;;;;5075990;28;20426;-78
2022/10/28 05:47:47;;;;;;;;;;;10.00;99.90;;;;;;5076863;28;19916;-82
2022/10/28 05:50:13;;;;;;;;;;;10.00;99.90;;;;;;5078494;28;20382;-82
2022/10/28 05:52:39;;;;;;;;;;;10.00;99.90;;;;;;5074868;28;20392;-82
2022/10/28 05:55:05;;;;;;;;;;;10.00;99.90;;;;;;5078654;28;19962;-81
2022/10/28 05:57:34;;;;;;;;;;;10.20;99.90;;;;;;5067966;28;19935;-82
2022/10/28 06:00:00;;;;;;;;;;;10.20;99.60;;;;;;5075705;28;19970;-82
2022/10/28 06:02:25;;;;;;;;;;;10.30;99.90;;;;;;5073542;28;19924;-82
2022/10/28 06:04:51;;;;;;;;;;;10.10;99.90;;;;;;5064260;28;19959;-81
2022/10/28 06:07:16;;;;;;;;;;;10.10;99.90;;;;;;5072622;28;20007;-82
2022/10/28 06:09:42;;;;;;;;;;;10.20;99.90;;;;;;5074139;28;19919;-82
2022/10/28 06:12:08;;;;;;;;;;;10.10;99.90;;;;;;5068921;28;19948;-81
2022/10/28 06:14:33;;;;;;;;;;;10.20;99.90;;;;;;5078509;28;19948;-81
2022/10/28 06:16:58;;;;;;;;;;;10.40;99.20;;;;;;5048922;28;19927;-81
2022/10/28 06:19:24;;;;;;;;;;;10.50;98.70;;;;;;5080118;28;19920;-82
2022/10/28 06:21:49;;;;;;;;;;;10.70;98.40;;;;;;5078766;28;19943;-81
2022/10/28 06:24:15;;;;;;;;;;;10.60;98.00;;;;;;5070580;28;19917;-82
2022/10/28 06:26:40;;;;;;;;;;;10.70;98.50;;;;;;5068169;28;20442;-81
2022/10/28 06:29:09;;;;;;;;;;;10.70;98.70;;;;;;5073092;28;19931;-81
2022/10/28 06:31:37;;;;;;;;;;;10.70;98.40;;;;;;5072796;28;19921;-81
2022/10/28 06:34:04;;;;;;;;;;;10.70;98.50;;;;;;5064058;28;21308;-81
2022/10/28 06:36:30;;;;;;;;;;;10.80;97.90;;;;;;5075512;28;19916;-81
2022/10/28 06:38:55;;;;;;;;;;;11.00;97.00;;;;;;5056924;28;20065;-83
2022/10/28 06:41:21;;;;;;;;;;;11.10;96.60;;;;;;5078339;28;20371;-81
2022/10/28 06:43:46;;;;;;;;;;;11.20;96.40;;;;;;5059583;28;19929;-81
2022/10/28 06:46:12;;;;;;;;;;;11.10;96.30;;;;;;5072679;28;19924;-81
2022/10/28 06:48:37;;;;;;;;;;;11.20;96.30;;;;;;5081126;28;19912;-81
2022/10/28 06:51:03;;;;;;;;;;;11.20;96.20;;;;;;5076389;28;19947;-81
2022/10/28 06:53:28;;;;;;;;;;;11.20;96.20;;;;;;5075454;28;19915;-81
2022/10/28 06:55:55;;;;;;;;;;;11.20;96.50;;;;;;5073882;28;19942;-81
2022/10/28 06:58:21;;;;;;;;;;;11.20;96.50;;;;;;5070651;28;20045;-81
2022/10/28 07:00:46;;;;;;;;;;;11.30;96.10;;;;;;5062106;28;20674;-81
2022/10/28 07:03:12;;;;;;;;;;;11.40;96.40;;;;;;5091357;28;19919;-80
2022/10/28 07:05:37;;;;;;;;;;;11.50;95.10;;;;;;5055199;28;19916;-81
2022/10/28 07:08:03;;;;;;;;;;;11.50;94.50;;;;;;5072529;28;19927;-82
2022/10/28 07:10:28;;;;;;;;;;;11.60;94.20;;;;;;5062580;28;20394;-81
2022/10/28 07:12:54;;;;;;;;;;;11.60;94.20;;;;;;5062824;28;20577;-81
2022/10/28 07:15:20;;;;;;;;;;;11.60;93.70;;;;;;5051915;28;19978;-81
2022/10/28 07:17:50;;;;;;;;;;;11.70;94.60;;;;;;5077527;28;19917;-81
2022/10/28 07:20:16;;;;;;;;;;;11.70;93.90;;;;;;5075498;28;19912;-82
2022/10/28 07:22:41;;;;;;;;;;;11.80;93.70;;;;;;5071119;28;19951;-81
2022/10/28 07:25:07;;;;;;;;;;;11.80;93.40;;;;;;5072066;28;19929;-81
2022/10/28 07:27:33;;;;;;;;;;;11.80;94.40;;;;;;5075299;28;19921;-81
2022/10/28 07:29:58;;;;;;;;;;;11.90;93.30;;;;;;5073818;28;19938;-81
2022/10/28 07:32:24;;;;;;;;;;;11.90;93.20;;;;;;5063128;28;19916;-81
2022/10/28 07:34:49;;;;;;;;;;;11.90;93.20;;;;;;5078218;28;20445;-81
2022/10/28 07:37:15;;;;;;;;;;;11.90;92.90;;;;;;5075577;28;19927;-80
2022/10/28 07:39:40;;;;;;;;;;;11.90;93.50;;;;;;5076277;28;19916;-81
2022/10/28 07:42:06;;;;;;;;;;;12.00;93.40;;;;;;5069209;28;20387;-81
2022/10/28 07:44:31;;;;;;;;;;;12.00;93.20;;;;;;5056496;28;20335;-81
2022/10/28 07:46:56;;;;;;;;;;;12.10;93.10;;;;;;5065454;28;19942;-81
2022/10/28 07:49:22;;;;;;;;;;;12.10;93.00;;;;;;5079343;28;20008;-82
2022/10/28 07:51:49;;;;;;;;;;;12.20;93.20;;;;;;5065193;28;20066;-81
2022/10/28 07:54:14;;;;;;;;;;;12.20;92.40;;;;;;5065815;28;20418;-81
2022/10/28 07:56:40;;;;;;;;;;;12.20;92.00;;;;;;5078695;28;19912;-80
2022/10/28 07:59:06;;;;;;;;;;;12.20;92.20;;;;;;5075628;28;19970;-81
2022/10/28 08:01:31;;;;;;;;;;;12.30;92.20;;;;;;5069880;28;19916;-80
2022/10/28 08:03:57;;;;;;;;;;;12.30;91.80;;;;;;5074390;28;20550;-82
2022/10/28 08:06:22;;;;;;;;;;;12.40;91.50;;;;;;5068755;28;20447;-82
2022/10/28 08:08:52;;;;;;;;;;;12.50;92.30;;;;;;5069272;28;19923;-82
2022/10/28 08:11:18;;;;;;;;;;;12.50;92.00;;;;;;5071323;28;19936;-82
2022/10/28 08:13:44;;;;;;;;;;;12.60;91.70;;;;;;5075975;28;19923;-81
2022/10/28 08:16:10;;;;;;;;;;;12.60;92.00;;;;;;5065263;28;20612;-81
2022/10/28 08:18:36;;;;;;;;;;;12.70;91.40;;;;;;5068010;28;19912;-82
2022/10/28 08:21:03;;;;;;;;;;;12.80;90.80;;;;;;5071531;28;19913;-82
2022/10/28 08:23:28;;;;;;;;;;;12.90;90.90;;;;;;5063624;28;20555;-82
2022/10/28 08:25:54;;;;;;;;;;;13.00;90.60;;;;;;5082711;28;19919;-81
2022/10/28 08:28:20;;;;;;;;;;;13.00;91.10;;;;;;5071811;28;19920;-82
2022/10/28 08:30:46;;;;;;;;;;;13.10;90.50;;;;;;5062122;28;19945;-82
2022/10/28 08:33:11;;;;;;;;;;;13.10;90.90;;;;;;5074767;28;20022;-82
2022/10/28 08:35:37;;;;;;;;;;;13.20;90.90;;;;;;5072619;28;19916;-81
2022/10/28 08:38:03;;;;;;;;;;;13.30;91.80;;;;;;5066973;28;20034;-81
2022/10/28 08:40:34;;;;;;;;;;;13.30;92.50;;;;;;5074885;28;20003;-82
2022/10/28 08:43:04;;;;;;;;;;;13.40;91.60;;;;;;5066632;28;19917;-82
2022/10/28 08:45:32;;;;;;;;;;;13.50;90.60;;;;;;5066250;28;20020;-82
2022/10/28 08:48:09;;;;;;;;;;;13.60;90.50;;;;;;5077143;28;20826;-82
2022/10/28 08:50:45;;;;;;;;;;;13.80;90.60;;;;;;5075233;28;19916;-82
2022/10/28 08:53:13;;;;;;;;;;;13.90;89.30;;;;;;5061032;28;19912;-82
2022/10/28 08:55:43;;;;;;;;;;;13.90;87.90;;;;;;5058661;28;19923;-83
2022/10/28 08:58:14;;;;;;;;;;;14.10;89.90;;;;;;5084029;28;19916;-81
2022/10/28 09:00:43;;;;;;;;;;;14.20;86.70;;;;;;5077733;28;20025;-83
2022/10/28 09:03:12;;;;;;;;;;;14.30;88.00;;;;;;5088463;28;20367;-82
2022/10/28 09:05:42;;;;;;;;;;;14.50;88.80;;;;;;5078943;28;19938;-82
2022/10/28 09:08:28;;;;;;;;;;;14.60;85.20;;;;;;5066900;28;19952;-82
2022/10/28 09:11:12;;;;;;;;;;;14.60;84.50;;;;;;5083246;28;20257;-82
2022/10/28 09:14:07;;;;;;;;;;;14.70;83.90;;;;;;5079760;28;19943;-82
2022/10/28 09:16:39;;;;;;;;;;;14.50;83.10;;;;;;5044087;28;19987;-81
2022/10/28 09:19:13;;;;;;;;;;;14.50;82.90;;;;;;5073501;28;19948;-81
2022/10/28 09:21:45;;;;;;;;;;;14.60;83.50;;;;;;5074453;28;19951;-80
2022/10/28 09:24:18;;;;;;;;;;;14.60;85.00;;;;;;5070369;28;19995;-81
2022/10/28 09:27:02;;;;;;;;;;;14.60;84.00;;;;;;5062696;28;19928;-80
2022/10/28 09:29:29;;;;;;;;;;;14.60;84.40;;;;;;5074667;28;19919;-81
2022/10/28 09:32:08;;;;;;;;;;;14.80;83.30;;;;;;5079824;28;19924;-81
2022/10/28 09:34:42;;;;;;;;;;;14.90;84.20;;;;;;5077752;28;19916;-85
2022/10/28 09:37:10;;;;;;;;;;;14.90;82.00;;;;;;5077605;28;19938;-81
2022/10/28 09:39:40;;;;;;;;;;;14.80;83.80;;;;;;5075000;28;19988;-81
2022/10/28 09:42:10;;;;;;;;;;;15.00;82.70;;;;;;5080800;28;19943;-82
2022/10/28 09:44:44;;;;;;;;;;;15.20;82.60;;;;;;5068075;28;19947;-79
2022/10/28 09:47:15;;;;;;;;;;;15.20;83.50;;;;;;5080661;28;20061;-80
2022/10/28 09:49:42;;;;;;;;;;;15.40;81.70;;;;;;5076601;28;19920;-80
2022/10/28 09:52:07;;;;;;;;;;;15.40;81.70;;;;;;5076412;28;19912;-80
2022/10/28 09:54:34;;;;;;;;;;;15.50;80.60;;;;;;5078796;28;20579;-80
2022/10/28 09:57:00;;;;;;;;;;;15.30;81.50;;;;;;5078133;28;20543;-79
2022/10/28 09:59:26;;;;;;;;;;;15.30;81.20;;;;;;5069967;28;19928;-80
2022/10/28 10:01:51;;;;;;;;;;;15.40;81.20;;;;;;5071650;28;19920;-80
2022/10/28 10:04:22;;;;;;;;;;;15.40;82.70;;;;;;5079395;28;19912;-80
2022/10/28 10:07:00;;;;;;;;;;;15.60;80.60;;;;;;5075217;28;19920;-80
2022/10/28 10:09:27;;;;;;;;;;;15.80;81.00;;;;;;5076126;28;19919;-80
2022/10/28 10:11:59;;;;;;;;;;;15.80;81.20;;;;;;5080689;28;20516;-80
2022/10/28 10:14:30;;;;;;;;;;;15.80;79.20;;;;;;5065634;28;19912;-80
2022/10/28 10:16:58;;;;;;;;;;;16.00;79.80;;;;;;5083353;28;19955;-80
2022/10/28 10:19:23;;;;;;;;;;;16.10;79.40;;;;;;5075824;28;19921;-80
2022/10/28 10:21:53;;;;;;;;;;;16.20;78.10;;;;;;5045851;28;19920;-80
2022/10/28 10:24:24;;;;;;;;;;;16.20;77.30;;;;;;5068304;28;20003;-80
2022/10/28 10:26:50;;;;;;;;;;;16.20;77.80;;;;;;5070858;28;19916;-80
2022/10/28 10:29:16;;;;;;;;;;;16.20;78.30;;;;;;5056421;28;19920;-80
2022/10/28 10:31:42;;;;;;;;;;;16.30;78.60;;;;;;5074705;28;19950;-80
2022/10/28 10:34:19;;;;;;;;;;;16.10;77.10;;;;;;5079027;28;20402;-79
2022/10/28 10:36:52;;;;;;;;;;;16.00;78.80;;;;;;5071889;28;19920;-80
2022/10/28 10:39:21;;;;;;;;;;;15.90;77.90;;;;;;5069218;28;20376;-80
2022/10/28 10:41:47;;;;;;;;;;;15.80;79.40;;;;;;5079321;28;20383;-80
2022/10/28 10:44:21;;;;;;;;;;;15.90;79.60;;;;;;5077166;28;19931;-81
2022/10/28 10:46:58;;;;;;;;;;;15.80;81.00;;;;;;5073632;28;20332;-80
2022/10/28 10:49:24;;;;;;;;;;;15.90;81.60;;;;;;5066822;28;19928;-80
2022/10/28 10:51:57;;;;;;;;;;;16.00;80.00;;;;;;5054074;28;20402;-80
2022/10/28 10:54:24;;;;;;;;;;;15.90;78.90;;;;;;5073579;28;19958;-80
2022/10/28 10:56:50;;;;;;;;;;;16.00;78.30;;;;;;5061128;28;20022;-80
2022/10/28 10:59:22;;;;;;;;;;;16.10;78.80;;;;;;5074915;28;20007;-80
2022/10/28 11:01:48;;;;;;;;;;;16.20;79.60;;;;;;5068236;28;20675;-80
2022/10/28 11:04:24;;;;;;;;;;;16.30;77.50;;;;;;5055599;28;20031;-80
2022/10/28 11:06:54;;;;;;;;;;;16.30;78.80;;;;;;5072639;28;19956;-80
2022/10/28 11:09:38;;;;;;;;;;;16.50;77.20;;;;;;5067592;28;20399;-80
2022/10/28 11:12:14;;;;;;;;;;;16.60;75.00;;;;;;5078957;28;19917;-79
2022/10/28 11:14:52;;;;;;;;;;;16.80;75.60;;;;;;5071971;28;19912;-80
2022/10/28 11:17:22;;;;;;;;;;;16.70;76.70;;;;;;5079597;28;19955;-80
2022/10/28 11:19:50;;;;;;;;;;;16.90;76.90;;;;;;5072426;28;19923;-79
2022/10/28 11:22:26;;;;;;;;;;;17.10;76.10;;;;;;5071131;28;19912;-80
2022/10/28 11:24:54;;;;;;;;;;;17.40;75.90;;;;;;5072497;28;19912;-80
2022/10/28 11:27:26;;;;;;;;;;;17.60;73.70;;;;;;5068783;28;19931;-80
2022/10/28 11:29:51;;;;;;;;;;;17.70;73.90;;;;;;5070390;28;19938;-79
2022/10/28 11:32:35;;;;;;;;;;;17.90;73.40;;;;;;5074663;28;19932;-80
2022/10/28 11:35:03;;;;;;;;;;;17.80;72.70;;;;;;5073863;28;20003;-81
2022/10/28 11:37:29;;;;;;;;;;;17.70;71.70;;;;;;5066394;28;20046;-82
2022/10/28 11:40:06;;;;;;;;;;;17.60;72.70;;;;;;5079159;28;20010;-81
2022/10/28 11:42:44;;;;;;;;;;;17.70;73.70;;;;;;5072444;28;19936;-81
2022/10/28 11:45:09;;;;;;;;;;;17.80;72.70;;;;;;5068810;28;20434;-82
2022/10/28 11:47:41;;;;;;;;;;;17.80;70.90;;;;;;5081122;28;19924;-81
2022/10/28 11:50:14;;;;;;;;;;;17.90;70.90;;;;;;5071857;28;22042;-81
2022/10/28 11:52:52;;;;;;;;;;;18.00;71.00;;;;;;5069467;28;19919;-81
2022/10/28 11:55:17;;;;;;;;;;;18.20;71.10;;;;;;5071527;28;19916;-81
2022/10/28 11:57:51;;;;;;;;;;;18.30;71.10;;;;;;5060649;28;19912;-81
2022/10/28 12:00:35;;;;;;;;;;;18.40;70.80;;;;;;5066550;28;19916;-81
2022/10/28 12:03:19;;;;;;;;;;;18.50;69.10;;;;;;5075275;28;19913;-81
2022/10/28 12:05:45;;;;;;;;;;;18.50;67.60;;;;;;5069850;28;19920;-80
2022/10/28 12:08:16;;;;;;;;;;;18.50;68.30;;;;;;5072819;28;20407;-81
2022/10/28 12:11:01;;;;;;;;;;;18.50;68.60;;;;;;5076201;28;20431;-81
2022/10/28 12:13:52;;;;;;;;;;;18.60;69.30;;;;;;5074894;28;20375;-82
2022/10/28 12:16:28;;;;;;;;;;;18.70;70.70;;;;;;5053744;28;19923;-81
2022/10/28 12:18:56;;;;;;;;;;;18.70;69.10;;;;;;5071133;28;20410;-82
2022/10/28 12:21:21;;;;;;;;;;;18.90;69.20;;;;;;5073844;28;20383;-82
2022/10/28 12:23:47;;;;;;;;;;;19.10;70.20;;;;;;5072852;28;19924;-82
2022/10/28 12:26:15;;;;;;;;;;;19.20;69.20;;;;;;5063795;28;19924;-82
2022/10/28 12:28:43;;;;;;;;;;;19.30;69.50;;;;;;5069763;28;19965;-81
2022/10/28 12:31:23;;;;;;;;;;;19.40;69.20;;;;;;5076101;28;19921;-82
2022/10/28 12:33:51;;;;;;;;;;;19.60;67.20;;;;;;5074794;28;19919;-82
2022/10/28 12:36:35;;;;;;;;;;;19.70;66.70;;;;;;5058069;28;20319;-82
2022/10/28 12:39:15;;;;;;;;;;;19.70;68.10;;;;;;5073929;28;19913;-82
2022/10/28 12:42:04;;;;;;;;;;;19.70;67.30;;;;;;5076532;28;19962;-82
2022/10/28 12:44:31;;;;;;;;;;;19.70;68.20;;;;;;5076185;28;19960;-82
2022/10/28 12:47:12;;;;;;;;;;;19.80;68.90;;;;;;5077933;28;19916;-82
2022/10/28 12:49:57;;;;;;;;;;;19.80;66.50;;;;;;5096813;28;19912;-81
2022/10/28 12:52:28;;;;;;;;;;;19.80;66.90;;;;;;5080404;28;19923;-82
2022/10/28 12:55:00;;;;;;;;;;;19.80;66.30;;;;;;5091911;28;19945;-82
2022/10/28 12:57:27;;;;;;;;;;;19.90;66.70;;;;;;5062320;28;19920;-82
2022/10/28 12:59:56;;;;;;;;;;;20.00;65.80;;;;;;5073508;28;19917;-82
2022/10/28 13:02:28;;;;;;;;;;;20.10;66.80;;;;;;5085471;28;19916;-82
2022/10/28 13:04:54;;;;;;;;;;;20.10;65.20;;;;;;5076711;28;19939;-87
2022/10/28 13:07:25;;;;;;;;;;;20.20;65.80;;;;;;5068820;28;19924;-82
2022/10/28 13:09:54;;;;;;;;;;;20.20;65.60;;;;;;5081656;28;19951;-80
2022/10/28 13:12:34;;;;;;;;;;;20.10;65.50;;;;;;5079511;28;19916;-80
2022/10/28 13:15:00;;;;;;;;;;;20.10;67.00;;;;;;5070880;28;19917;-80
2022/10/28 13:17:38;;;;;;;;;;;20.10;66.60;;;;;;5082245;28;19923;-80
2022/10/28 13:20:22;;;;;;;;;;;20.20;65.60;;;;;;5081048;28;19924;-79
2022/10/28 13:22:56;;;;;;;;;;;20.00;67.40;;;;;;5069860;28;19917;-80
2022/10/28 13:25:34;;;;;;;;;;;20.30;66.20;;;;;;5074958;28;19913;-81
2022/10/28 13:27:59;;;;;;;;;;;20.30;67.90;;;;;;5066786;28;19952;-86
2022/10/28 13:30:25;;;;;;;;;;;20.40;65.70;;;;;;5066750;28;19967;-81
2022/10/28 13:33:04;;;;;;;;;;;20.30;66.30;;;;;;5078130;28;19934;-82
2022/10/28 13:35:30;;;;;;;;;;;20.30;66.00;;;;;;5071045;28;20398;-81
2022/10/28 13:37:57;;;;;;;;;;;20.10;67.80;;;;;;5075860;28;19916;-83
2022/10/28 13:40:29;;;;;;;;;;;20.10;68.20;;;;;;5073312;28;19920;-82
2022/10/28 13:42:54;;;;;;;;;;;20.20;67.70;;;;;;5077057;28;19921;-82
2022/10/28 13:45:38;;;;;;;;;;;20.10;68.40;;;;;;5068536;28;19974;-82
2022/10/28 13:48:23;;;;;;;;;;;20.30;67.90;;;;;;5097093;28;20387;-82
2022/10/28 13:50:48;;;;;;;;;;;20.60;66.50;;;;;;5056818;28;19916;-82
2022/10/28 13:53:23;;;;;;;;;;;20.80;66.60;;;;;;5055289;28;19989;-83
2022/10/28 13:55:54;;;;;;;;;;;20.90;66.30;;;;;;5068483;28;20461;-82
2022/10/28 13:58:24;;;;;;;;;;;20.50;67.10;;;;;;5074636;28;19913;-95
2022/10/28 14:00:50;;;;;;;;;;;20.60;65.80;;;;;;5070206;28;19923;-94
2022/10/28 14:03:17;;;;;;;;;;;20.70;66.30;;;;;;5056335;28;19921;-84
2022/10/28 14:05:42;;;;;;;;;;;20.60;66.00;;;;;;5072142;28;20410;-83
2022/10/28 14:08:18;;;;;;;;;;;20.70;67.40;;;;;;5072443;28;19947;-81
2022/10/28 14:10:59;;;;;;;;;;;20.70;66.00;;;;;;5079361;28;19938;-80
2022/10/28 14:13:24;;;;;;;;;;;20.70;65.80;;;;;;5078184;28;20271;-81
2022/10/28 14:16:08;;;;;;;;;;;20.60;65.60;;;;;;5060926;28;19971;-80
2022/10/28 14:18:34;;;;;;;;;;;20.70;66.40;;;;;;5076689;28;19916;-80
2022/10/28 14:21:00;;;;;;;;;;;20.40;66.50;;;;;;5068786;28;20499;-81
2022/10/28 14:23:25;;;;;;;;;;;20.30;66.90;;;;;;5067206;28;19935;-81
2022/10/28 14:25:53;;;;;;;;;;;20.20;67.70;;;;;;5075096;28;19922;-81
2022/10/28 14:28:39;;;;;;;;;;;20.10;67.40;;;;;;5075360;28;19959;-82
2022/10/28 14:31:07;;;;;;;;;;;19.90;68.10;;;;;;5062419;28;19924;-81
2022/10/28 14:33:53;;;;;;;;;;;19.80;69.40;;;;;;5082433;28;20418;-81